Russell, KS

3:53 AM CDT on May 22, 2015 (GMT -0500)
Ruppenthal Middle School | | Change Station
CLOSE
Current Station
Personal Weather Station
Location: Russell, KS
Elevation: 1854 ft
Nearby Weather Stations

Elev 1854 ft 38.89 °N, 98.86 °W | Updated 3 minutes ago

Mostly Cloudy
Mostly Cloudy
51.8 °F
Feels Like 51.8 °F
N
0.0
Wind Variable Wind from SSE
Gusts 5.0 mph

Today
High -- | Low -- °F
--% Chance of Precip.
Yesterday
High -- | Low -- °F
Precip. -- in
6:17 AM 8:47 PM
Waxing Crescent, 19% visible
Pressure 30.19 in
Visibility 10.0 miles
Clouds Mostly Cloudy 10000 ft
Dew Point 46 °F
Humidity 81%
Rainfall 0.00 in
Snow Depth Not available.
UV 0 out of 12
Pollen 8.40 out of 12
Air Quality Not available.
Flu Activity No Activity
METAR KRSL 220753Z AUTO 13006KT 10SM BKN100 10/08 A3019 RMK AO2 SLP223 T01000078 TSNO

More Conditions Fewer Conditions

Pressure 30.19 in
Visibility 10.0 miles
Clouds Mostly Cloudy 10000 ft
Dew Point 46 °F
Humidity 81%
Rainfall 0.00 in
Snow Depth Not available.
UV 0 out of 12
Pollen 8.40 out of 12
Air Quality Not available.
Flu Activity No Activity
METAR KRSL 220753Z AUTO 13006KT 10SM BKN100 10/08 A3019 RMK AO2 SLP223 T01000078 TSNO

More Conditions Fewer Conditions

10-Day Weather Forecast

Almanac

Astronomy

May. 22, 2015 Rise Set
Actual Time
Civil Twilight
Nautical Twilight
Astronomical Twilight
Moon
Length of Visible Light
Length of Day
Tomorrow will be .
, % of the Moon is Illuminated

Today's Extremes

State Highs State Lows

Community

WunderPhotos

Upload Photos

1,823,197 photos uploaded!

WunderBlogs® & News

Nearby

Air Quality

  Air Quality AQ Index Pollutant
Not available.

Snow Depth

Station Depth Elevation

Earthquake Activity

City Distance Mag. Time & Date
Minimum magnitude displayed is 2.5.

Coastal Water Temperatures

Place Temperature

Stations

Nearby Weather Stations

Station Location Temp. Windchill Dew Point Humidity Wind Precip. Elev Updated Type